Time;durP1;ratioP1;P1;durP2;ratioP2;P2;SDS_P1;SDS_P2;PMS_P1;PMS_P2;Temp;Humidity;BMP_temperature;BMP_pressure;BME280_temperature;BME280_humidity;BME280_pressure;Samples;Min_cycle;Max_cycle;Signal;HPM_P1;HPM_P2
2022/02/24 11:00:37;;;;;;;24.90;3.75;;;;;;;7.34;100.00;100380.13;5144583;27;20722;-33
2022/02/24 11:03:06;;;;;;;22.25;3.50;;;;;;;7.21;100.00;100371.31;5121875;27;20051;-40
2022/02/24 11:05:34;;;;;;;22.35;3.42;;;;;;;7.16;100.00;100365.00;5115383;28;20049;-38
2022/02/24 11:08:02;;;;;;;23.48;3.85;;;;;;;7.13;100.00;100354.47;5122125;27;20047;-39
2022/02/24 11:10:30;;;;;;;26.48;3.50;;;;;;;7.10;100.00;100364.22;5114784;27;20390;-35
2022/02/24 11:12:59;;;;;;;23.67;4.00;;;;;;;7.02;100.00;100380.63;5122540;27;20063;-38
2022/02/24 11:15:26;;;;;;;28.20;3.85;;;;;;;6.97;100.00;100411.19;5113914;27;20501;-36
2022/02/24 11:17:56;;;;;;;29.52;4.72;;;;;;;7.00;100.00;100418.91;5122066;27;20126;-40
2022/02/24 11:20:24;;;;;;;29.38;4.47;;;;;;;6.95;100.00;100399.56;5114549;27;20126;-36
2022/02/24 11:22:52;;;;;;;23.27;3.25;;;;;;;6.86;100.00;100407.63;5121600;27;20040;-31
2022/02/24 11:25:28;;;;;;;17.52;2.65;;;;;;;6.74;100.00;100398.84;5115136;27;20395;-32
2022/02/24 11:28:05;;;;;;;16.23;2.47;;;;;;;6.59;100.00;100401.69;5112388;28;20048;-30
2022/02/24 11:30:33;;;;;;;12.47;2.43;;;;;;;6.37;100.00;100394.56;5118294;28;20040;-33
2022/02/24 11:33:02;;;;;;;13.80;1.70;;;;;;;6.26;100.00;100392.09;5112130;27;20051;-36
2022/02/24 11:35:31;;;;;;;13.90;1.85;;;;;;;6.19;100.00;100370.25;5117027;28;20055;-36
2022/02/24 11:38:10;;;;;;;17.60;2.50;;;;;;;6.14;100.00;100381.34;5112524;27;20040;-31
2022/02/24 11:40:39;;;;;;;20.58;2.65;;;;;;;6.08;100.00;100385.22;5114275;28;20062;-31
2022/02/24 11:43:09;;;;;;;23.17;2.80;;;;;;;6.04;100.00;100387.72;5112774;27;20051;-38
2022/02/24 11:45:38;;;;;;;16.05;2.53;;;;;;;5.99;100.00;100375.84;5115662;28;20058;-32
2022/02/24 11:48:16;;;;;;;15.60;2.42;;;;;;;5.96;100.00;100381.94;5113280;28;20575;-31
2022/02/24 11:50:47;;;;;;;20.02;2.75;;;;;;;5.91;100.00;100391.09;5114659;28;20050;-35
2022/02/24 11:53:30;;;;;;;13.30;2.00;;;;;;;5.92;100.00;100380.84;5112940;28;20409;-32
2022/02/24 11:55:59;;;;;;;16.23;2.10;;;;;;;5.90;100.00;100388.59;5115392;28;20054;-37
2022/02/24 11:58:54;;;;;;;17.40;2.15;;;;;;;5.90;100.00;100372.81;5116858;28;20051;-36
2022/02/24 12:01:30;;;;;;;;;;;;;;;5.90;100.00;100371.97;5103705;28;20544;-35
2022/02/24 12:04:16;;;;;;;12.27;2.05;;;;;;;5.92;100.00;100370.59;5098160;27;19924;-38
2022/02/24 12:06:47;;;;;;;19.50;2.33;;;;;;;5.94;100.00;100360.06;5104107;28;20047;-30
2022/02/24 12:09:21;;;;;;;13.15;1.80;;;;;;;6.03;100.00;100360.31;5097087;28;20051;-35
2022/02/24 12:11:51;;;;;;;13.35;1.83;;;;;;;6.08;100.00;100371.38;5102473;28;20413;-37
2022/02/24 12:14:45;;;;;;;13.32;1.33;;;;;;;6.12;100.00;100369.72;5097710;28;20066;-33
2022/02/24 12:17:16;;;;;;;8.20;0.90;;;;;;;6.00;100.00;100385.78;5104790;28;20157;-38
2022/02/24 12:19:48;;;;;;;7.35;0.90;;;;;;;5.84;100.00;100412.66;5096209;28;20047;-34
2022/02/24 12:22:19;;;;;;;7.63;1.33;;;;;;;5.68;100.00;100411.00;5103906;28;20448;-33
2022/02/24 12:24:50;;;;;;;3.58;0.70;;;;;;;5.48;100.00;100417.38;5097132;28;20069;-34
2022/02/24 12:27:28;;;;;;;5.90;1.10;;;;;;;5.34;100.00;100425.41;5102237;28;20039;-40
2022/02/24 12:29:59;;;;;;;6.07;0.90;;;;;;;5.20;100.00;100436.16;5096511;28;20044;-32
2022/02/24 12:32:42;;;;;;;7.97;1.80;;;;;;;5.12;100.00;100436.72;5101999;28;20079;-29
2022/02/24 12:35:12;;;;;;;4.82;1.20;;;;;;;5.03;100.00;100449.41;5096861;28;20048;-36
2022/02/24 12:37:42;;;;;;;4.90;0.73;;;;;;;4.96;100.00;100450.78;5102956;28;20040;-33
2022/02/24 12:40:15;;;;;;;5.68;1.00;;;;;;;4.91;100.00;100453.53;5094841;28;20668;-31
2022/02/24 12:42:44;;;;;;;7.07;1.30;;;;;;;4.88;100.00;100456.81;5101660;28;20070;-32
2022/02/24 12:45:12;;;;;;;9.43;1.38;;;;;;;4.82;100.00;100456.81;5098424;28;20042;-39
2022/02/24 12:47:41;;;;;;;4.15;0.60;;;;;;;4.73;100.00;100469.50;5100001;28;20047;-32
2022/02/24 12:50:09;;;;;;;4.35;1.00;;;;;;;4.66;100.00;100484.66;5098583;28;20047;-33
2022/02/24 12:52:38;;;;;;;3.65;0.50;;;;;;;4.57;100.00;100478.84;5100460;28;20050;-32
2022/02/24 12:55:06;;;;;;;6.22;1.60;;;;;;;4.48;100.00;100489.53;5096214;28;20048;-35
2022/02/24 12:57:34;;;;;;;7.45;1.92;;;;;;;4.46;100.00;100496.44;5100783;28;20050;-32
2022/02/24 13:00:02;;;;;;;6.82;1.20;;;;;;;4.43;100.00;100497.78;5097836;28;20060;-34
2022/02/24 13:02:30;;;;;;;2.85;0.90;;;;;;;4.42;100.00;100509.94;5103457;28;20139;-35
2022/02/24 13:05:02;;;;;;;7.82;0.88;;;;;;;4.42;100.00;100518.22;5102941;28;20378;-36
2022/02/24 13:10:16;;;;;;;5.13;1.20;;;;;;;4.30;100.00;100525.91;5103746;28;19920;-34
2022/02/24 13:12:46;;;;;;;4.07;1.60;;;;;;;4.33;100.00;100527.31;5097772;28;20123;-37
2022/02/24 13:15:14;;;;;;;3.47;1.00;;;;;;;4.37;100.00;100542.25;5098939;28;20558;-31
2022/02/24 13:17:48;;;;;;;4.45;0.90;;;;;;;4.39;100.00;100537.28;5096191;28;20047;-37
2022/02/24 13:20:23;;;;;;;5.38;1.48;;;;;;;4.40;100.00;100537.00;5101117;28;20134;-30
2022/02/24 13:22:51;;;;;;;3.15;0.60;;;;;;;4.38;100.00;100550.28;5095988;28;20052;-37
2022/02/24 13:25:26;;;;;;;2.63;0.40;;;;;;;4.36;100.00;100569.03;5102123;28;20063;-39
2022/02/24 13:27:54;;;;;;;3.22;0.68;;;;;;;4.34;100.00;100557.44;5095883;28;20044;-34
2022/02/24 13:30:23;;;;;;;3.72;0.50;;;;;;;4.30;100.00;100558.22;5097038;28;20048;-32
2022/02/24 13:32:51;;;;;;;6.93;0.50;;;;;;;4.30;100.00;100555.44;5105629;28;20512;-34
2022/02/24 13:35:22;;;;;;;1.90;0.52;;;;;;;4.31;100.00;100552.44;5097526;28;20058;-34
2022/02/24 13:37:52;;;;;;;;;;;;;;;4.26;100.00;100562.59;5105904;28;20114;-35
2022/02/24 13:40:22;;;;;;;5.63;1.00;;;;;;;4.25;100.00;100567.28;5095209;28;19966;-37
2022/02/24 13:43:03;;;;;;;1.25;0.60;;;;;;;4.27;100.00;100562.34;5104619;28;20470;-33
2022/02/24 13:45:31;;;;;;;2.33;0.30;;;;;;;4.28;100.00;100565.94;5097194;28;20051;-38
2022/02/24 13:48:02;;;;;;;2.90;0.40;;;;;;;4.27;100.00;100556.81;5103577;28;20054;-35
2022/02/24 13:50:41;;;;;;;3.90;0.40;;;;;;;4.29;100.00;100546.34;5096739;27;20040;-33
2022/02/24 13:53:15;;;;;;;3.22;0.30;;;;;;;4.29;100.00;100554.63;5105374;28;20054;-34
2022/02/24 13:55:55;;;;;;;3.65;0.40;;;;;;;4.31;100.00;100544.13;5097233;28;20050;-33
2022/02/24 13:58:27;;;;;;;1.75;0.25;;;;;;;4.35;100.00;100544.44;5103672;28;20054;-35
2022/02/24 14:00:58;;;;;;;2.55;0.25;;;;;;;4.39;100.00;100538.13;5097157;28;20070;-34
2022/02/24 14:03:38;;;;;;;3.40;0.82;;;;;;;4.43;100.00;100530.94;5104641;28;20485;-37
2022/02/24 14:06:10;;;;;;;6.80;1.00;;;;;;;4.43;100.00;100521.81;5097247;28;20147;-31
2022/02/24 14:08:40;;;;;;;5.22;0.90;;;;;;;4.43;100.00;100527.34;5105089;28;20079;-33
2022/02/24 14:11:12;;;;;;;3.70;0.70;;;;;;;4.45;100.00;100512.19;5096681;28;20063;-39
2022/02/24 14:13:40;;;;;;;7.22;0.70;;;;;;;4.47;100.00;100498.94;5104785;28;20054;-33
2022/02/24 14:16:09;;;;;;;2.63;0.60;;;;;;;4.49;100.00;100493.97;5097187;28;20055;-37
2022/02/24 14:18:40;;;;;;;4.82;0.65;;;;;;;4.53;100.00;100507.25;5094012;28;20344;-34
2022/02/24 14:21:09;;;;;;;2.42;0.73;;;;;;;4.53;100.00;100523.84;5100779;28;20497;-32
2022/02/24 14:23:37;;;;;;;2.13;0.32;;;;;;;4.54;100.00;100522.75;5095437;28;20039;-39
2022/02/24 14:26:05;;;;;;;1.33;0.30;;;;;;;4.56;100.00;100523.31;5098199;28;20052;-42
2022/02/24 14:28:34;;;;;;;3.70;0.40;;;;;;;4.59;100.00;100517.25;5096821;28;20512;-36
2022/02/24 14:31:04;;;;;;;2.25;0.35;;;;;;;4.60;100.00;100525.25;5098454;28;20163;-33
2022/02/24 14:33:32;;;;;;;3.50;0.40;;;;;;;4.65;100.00;100541.03;5095349;28;20055;-40
2022/02/24 14:36:00;;;;;;;4.00;0.68;;;;;;;4.69;100.00;100555.97;5098641;28;20035;-33
2022/02/24 14:38:28;;;;;;;5.40;0.40;;;;;;;4.71;100.00;100559.31;5095687;28;20118;-34
2022/02/24 14:40:56;;;;;;;3.58;0.68;;;;;;;4.70;100.00;100555.72;5095133;28;20050;-33
2022/02/24 14:43:24;;;;;;;2.67;0.50;;;;;;;4.74;100.00;100564.31;5096248;28;20528;-39
2022/02/24 14:45:53;;;;;;;6.63;0.60;;;;;;;4.75;100.00;100577.03;5095531;28;20055;-35
2022/02/24 14:48:27;;;;;;;8.02;0.90;;;;;;;4.77;100.00;100585.88;5109942;28;20137;-34
2022/02/24 14:50:55;;;;;;;5.47;0.60;;;;;;;4.71;100.00;100593.31;5102647;28;20040;-38
2022/02/24 14:53:22;;;;;;;7.88;1.23;;;;;;;4.67;100.00;100594.94;5098595;28;20047;-37
2022/02/24 14:55:50;;;;;;;6.05;0.73;;;;;;;4.63;100.00;100579.16;5103916;28;20405;-36
2022/02/24 14:58:19;;;;;;;8.13;0.98;;;;;;;4.73;100.00;100585.59;5096666;28;20139;-36
2022/02/24 15:00:47;;;;;;;8.45;1.20;;;;;;;4.84;100.00;100603.03;5103367;28;20048;-31
2022/02/24 15:03:16;;;;;;;6.32;1.02;;;;;;;4.90;100.00;100582.63;5096830;28;20047;-30
2022/02/24 15:05:44;;;;;;;9.25;2.15;;;;;;;4.96;100.00;100595.38;5104163;28;20092;-35
2022/02/24 15:08:14;;;;;;;3.47;0.90;;;;;;;5.01;100.00;100598.16;5096011;28;20050;-34
2022/02/24 15:10:44;;;;;;;9.40;1.23;;;;;;;4.98;100.00;100612.53;5103908;28;20036;-43
2022/02/24 15:13:13;;;;;;;6.10;1.05;;;;;;;4.94;100.00;100616.94;5096428;28;20124;-28
2022/02/24 15:15:42;;;;;;;8.80;1.10;;;;;;;4.87;100.00;100627.41;5103265;28;20440;-33
2022/02/24 15:18:10;;;;;;;5.25;1.05;;;;;;;4.84;100.00;100625.16;5096633;28;20044;-33
2022/02/24 15:20:39;;;;;;;4.93;0.95;;;;;;;4.80;100.00;100624.84;5094491;28;20048;-35
2022/02/24 15:23:08;;;;;;;7.20;0.80;;;;;;;4.74;100.00;100636.16;5098778;28;20074;-36
2022/02/24 15:25:36;;;;;;;8.25;1.50;;;;;;;4.71;100.00;100647.75;5095252;28;20490;-40
2022/02/24 15:28:04;;;;;;;4.60;0.70;;;;;;;4.68;100.00;100642.75;5097357;28;20044;-32
2022/02/24 15:30:31;;;;;;;6.20;1.15;;;;;;;4.71;100.00;100639.47;5101736;28;20472;-30
2022/02/24 15:32:59;;;;;;;9.68;1.85;;;;;;;4.76;100.00;100653.31;5100292;28;20047;-35
2022/02/24 15:35:27;;;;;;;8.88;1.10;;;;;;;4.86;100.00;100653.38;5103336;28;20495;-38
2022/02/24 15:37:56;;;;;;;6.50;1.27;;;;;;;4.99;100.00;100649.31;5104139;28;20346;-35
2022/02/24 15:40:24;;;;;;;7.70;1.35;;;;;;;5.01;100.00;100647.09;5103166;28;20138;-38
2022/02/24 15:42:53;;;;;;;5.68;1.42;;;;;;;4.98;100.00;100669.78;5099787;28;20451;-39
2022/02/24 15:45:24;;;;;;;9.75;1.40;;;;;;;4.97;100.00;100670.88;5100530;28;20052;-38
2022/02/24 15:47:52;;;;;;;7.28;1.63;;;;;;;5.01;100.00;100664.53;5105342;28;20104;-32
2022/02/24 15:50:21;;;;;;;12.20;1.98;;;;;;;5.07;100.00;100666.22;5102408;28;20104;-31
2022/02/24 15:52:48;;;;;;;12.57;1.50;;;;;;;5.12;100.00;100687.56;5106688;28;20508;-33
2022/02/24 15:55:18;;;;;;;11.77;1.63;;;;;;;5.11;100.00;100697.78;5100823;28;20062;-34
2022/02/24 15:57:46;;;;;;;5.55;1.10;;;;;;;5.02;100.00;100704.91;5106839;27;20058;-36
2022/02/24 16:00:16;;;;;;;7.03;0.95;;;;;;;4.96;100.00;100705.16;5099825;28;20062;-38
2022/02/24 16:02:44;;;;;;;8.63;1.20;;;;;;;4.95;100.00;100700.72;5107197;28;20042;-34
2022/02/24 16:05:12;;;;;;;6.65;0.95;;;;;;;4.95;100.00;100701.56;5099371;28;20075;-35
2022/02/24 16:07:40;;;;;;;7.55;1.63;;;;;;;4.93;100.00;100694.63;5107169;28;20082;-35
2022/02/24 16:10:08;;;;;;;8.77;1.27;;;;;;;4.91;100.00;100700.41;5099736;28;20059;-34
2022/02/24 16:12:37;;;;;;;11.73;1.48;;;;;;;4.92;100.00;100724.19;5106553;28;20469;-35
2022/02/24 16:15:06;;;;;;;9.82;1.60;;;;;;;4.92;100.00;100721.44;5099859;28;20052;-40
2022/02/24 16:17:34;;;;;;;9.98;1.60;;;;;;;4.93;100.00;100717.56;5106256;28;20170;-31
2022/02/24 16:20:03;;;;;;;10.57;2.03;;;;;;;4.94;100.00;100713.72;5093918;28;20234;-39
2022/02/24 16:22:32;;;;;;;12.75;1.73;;;;;;;4.93;100.00;100736.94;5098259;28;20097;-41
2022/02/24 16:25:00;;;;;;;10.10;1.50;;;;;;;4.92;100.00;100726.97;5099756;28;20046;-32
2022/02/24 16:27:28;;;;;;;8.18;1.60;;;;;;;4.96;100.00;100743.88;5099293;27;20565;-31
2022/02/24 16:29:58;;;;;;;9.52;1.70;;;;;;;4.97;100.00;100740.84;5100355;28;20046;-36
2022/02/24 16:32:26;;;;;;;6.55;1.45;;;;;;;4.97;100.00;100740.00;5097027;28;20116;-34
2022/02/24 16:34:55;;;;;;;10.23;1.85;;;;;;;4.94;100.00;100752.41;5100607;28;20097;-39
2022/02/24 16:37:24;;;;;;;6.00;1.50;;;;;;;4.91;100.00;100766.78;5098134;28;20036;-32
2022/02/24 16:39:52;;;;;;;9.98;1.85;;;;;;;4.87;100.00;100764.78;5097242;28;20047;-32
2022/02/24 16:42:20;;;;;;;12.55;2.00;;;;;;;4.85;100.00;100771.41;5098485;28;20051;-34
2022/02/24 16:44:48;;;;;;;11.18;1.50;;;;;;;4.83;100.00;100773.59;5096099;28;20052;-39
2022/02/24 16:47:19;;;;;;;8.15;1.30;;;;;;;4.72;100.00;100784.84;5099373;28;20405;-39
2022/02/24 16:49:48;;;;;;;12.10;1.90;;;;;;;4.54;100.00;100775.00;5097994;28;20065;-38
2022/02/24 16:52:16;;;;;;;6.72;0.98;;;;;;;4.40;100.00;100785.63;5102301;28;20067;-33
2022/02/24 16:54:44;;;;;;;7.95;1.10;;;;;;;4.34;100.00;100785.84;5095814;28;20054;-36
2022/02/24 16:57:12;;;;;;;7.20;1.10;;;;;;;4.29;100.00;100792.16;5103081;28;20469;-36
2022/02/24 16:59:59;;;;;;;6.22;1.00;;;;;;;4.22;100.00;100793.44;5095425;28;20052;-39
2022/02/24 17:02:28;;;;;;;5.75;0.77;;;;;;;4.20;100.00;100785.41;5103004;28;20040;-34
2022/02/24 17:04:56;;;;;;;6.72;1.02;;;;;;;4.19;100.00;100786.53;5096029;28;20040;-35
2022/02/24 17:07:29;;;;;;;6.90;1.45;;;;;;;4.18;100.00;100787.63;5102369;28;20173;-33
2022/02/24 17:09:57;;;;;;;3.70;1.10;;;;;;;4.18;100.00;100792.31;5096106;28;20036;-37
2022/02/24 17:12:25;;;;;;;5.90;0.90;;;;;;;4.18;100.00;100806.94;5103258;28;20083;-33
2022/02/24 17:14:54;;;;;;;8.40;1.20;;;;;;;4.16;100.00;100809.13;5094926;28;20047;-33
2022/02/24 17:17:24;;;;;;;4.88;0.80;;;;;;;4.14;100.00;100819.59;5103058;28;20048;-31
2022/02/24 17:19:53;;;;;;;6.75;0.80;;;;;;;4.11;100.00;100826.47;5095570;28;20627;-36
2022/02/24 17:22:21;;;;;;;4.32;0.73;;;;;;;4.08;100.00;100831.66;5101624;28;20501;-38
2022/02/24 17:24:49;;;;;;;9.68;0.90;;;;;;;4.06;100.00;100847.66;5095692;28;20059;-33
2022/02/24 17:27:17;;;;;;;11.30;1.13;;;;;;;4.08;100.00;100851.00;5100592;28;20036;-35
2022/02/24 17:29:47;;;;;;;6.18;0.95;;;;;;;4.08;100.00;100870.31;5094919;27;20058;-31
2022/02/24 17:32:14;;;;;;;4.57;0.93;;;;;;;4.09;100.00;100872.81;5099401;28;20061;-38
2022/02/24 17:34:42;;;;;;;6.90;1.08;;;;;;;4.10;100.00;100882.78;5096770;28;20044;-36
2022/02/24 17:37:11;;;;;;;6.05;1.02;;;;;;;4.12;100.00;100885.28;5099610;28;20063;-37
2022/02/24 17:39:39;;;;;;;10.95;1.52;;;;;;;4.13;100.00;100900.78;5102034;28;20413;-37
2022/02/24 17:42:07;;;;;;;12.02;2.08;;;;;;;4.15;100.00;100890.31;5100855;28;20052;-38
2022/02/24 17:44:34;;;;;;;10.13;1.75;;;;;;;4.15;100.00;100907.72;5102946;28;20362;-35
2022/02/24 17:47:02;;;;;;;10.52;1.90;;;;;;;4.20;100.00;100906.13;5102265;28;20044;-35
2022/02/24 17:49:30;;;;;;;13.18;1.83;;;;;;;4.20;100.00;100909.69;5098760;28;20362;-34
2022/02/24 17:51:58;;;;;;;8.82;1.55;;;;;;;4.22;100.00;100926.84;5102787;28;20582;-34
2022/02/24 17:54:27;;;;;;;8.88;1.58;;;;;;;4.25;100.00;100920.81;5100111;28;20055;-31
2022/02/24 17:56:55;;;;;;;8.65;1.80;;;;;;;4.27;100.00;100924.16;5104035;28;20043;-32
2022/02/24 17:59:22;;;;;;;10.77;1.40;;;;;;;4.31;100.00;100936.38;5097664;28;20169;-36
2022/02/24 18:01:50;;;;;;;11.20;1.48;;;;;;;4.34;100.00;100943.31;5104296;28;20062;-35
2022/02/24 18:04:18;;;;;;;8.32;1.80;;;;;;;4.40;100.00;100945.03;5096566;28;20043;-37
2022/02/24 18:06:46;;;;;;;13.57;1.85;;;;;;;4.42;100.00;100960.25;5104510;28;20038;-36
2022/02/24 18:09:14;;;;;;;12.05;2.03;;;;;;;4.46;100.00;100964.19;5096561;28;20056;-31
2022/02/24 18:11:43;;;;;;;10.20;2.13;;;;;;;4.52;100.00;100958.72;5101987;28;20044;-35
2022/02/24 18:14:10;;;;;;;9.45;1.60;;;;;;;4.54;100.00;100954.63;5096690;28;20573;-36
2022/02/24 18:16:38;;;;;;;12.60;1.75;;;;;;;4.54;100.00;100959.31;5103886;28;20054;-37
2022/02/24 18:19:07;;;;;;;13.43;1.95;;;;;;;4.57;100.00;100969.84;5096794;28;20048;-32
2022/02/24 18:21:35;;;;;;;12.20;1.60;;;;;;;4.58;100.00;100966.84;5103320;28;20051;-37
2022/02/24 18:24:03;;;;;;;11.85;1.90;;;;;;;4.59;100.00;100975.97;5098651;28;20040;-37
2022/02/24 18:26:31;;;;;;;9.82;2.20;;;;;;;4.59;100.00;100971.28;5101826;28;20059;-37
2022/02/24 18:29:03;;;;;;;8.90;1.40;;;;;;;4.58;100.00;100975.13;5097837;28;20409;-32
2022/02/24 18:31:31;;;;;;;8.80;2.03;;;;;;;4.60;100.00;100992.25;5095135;28;20481;-34
2022/02/24 18:33:59;;;;;;;12.52;1.80;;;;;;;4.61;100.00;100991.16;5098060;28;20092;-33
2022/02/24 18:36:27;;;;;;;8.57;1.33;;;;;;;4.60;100.00;100999.72;5094948;28;20056;-33
2022/02/24 18:38:57;;;;;;;6.20;1.50;;;;;;;4.59;100.00;101015.50;5097975;28;20047;-34
2022/02/24 18:41:25;;;;;;;7.78;1.70;;;;;;;4.59;100.00;100998.91;5101442;28;20043;-33
2022/02/24 18:43:53;;;;;;;10.73;1.63;;;;;;;4.61;100.00;101001.38;5101371;28;20039;-35
2022/02/24 18:46:22;;;;;;;8.85;1.48;;;;;;;4.61;100.00;101006.91;5099717;28;20507;-33
2022/02/24 18:48:51;;;;;;;11.20;1.83;;;;;;;4.62;100.00;101020.47;5100615;28;20458;-39
2022/02/24 18:51:19;;;;;;;11.40;1.55;;;;;;;4.62;100.00;101008.59;5092120;28;20044;-36
2022/02/24 18:53:47;;;;;;;10.63;1.48;;;;;;;4.60;100.00;101013.53;5093040;28;20048;-38
2022/02/24 18:56:18;;;;;;;8.95;1.60;;;;;;;4.60;100.00;101006.09;5100663;28;20052;-36
2022/02/24 18:58:46;;;;;;;10.88;1.60;;;;;;;4.60;100.00;101019.06;5093994;28;20060;-35
2022/02/24 19:01:15;;;;;;;7.35;1.50;;;;;;;4.58;100.00;101033.16;5100517;28;20135;-31
2022/02/24 19:03:44;;;;;;;9.35;1.30;;;;;;;4.57;100.00;101025.97;5093838;28;20040;-32
2022/02/24 19:06:30;;;;;;;8.73;1.38;;;;;;;4.60;100.00;101028.19;5099932;28;20048;-33
2022/02/24 19:08:58;;;;;;;10.70;1.88;;;;;;;4.62;100.00;101030.69;5094265;28;20044;-39
2022/02/24 19:11:28;;;;;;;7.65;1.40;;;;;;;4.63;100.00;101046.19;5102686;28;20135;-32
2022/02/24 19:13:56;;;;;;;9.02;1.42;;;;;;;4.64;100.00;101045.09;5097145;28;20050;-33
2022/02/24 19:16:24;;;;;;;15.13;3.50;;;;;;;4.66;100.00;101057.59;5105282;28;20138;-33
2022/02/24 19:18:53;;;;;;;15.55;2.47;;;;;;;4.69;100.00;101057.06;5097677;28;20047;-33
2022/02/24 19:21:21;;;;;;;9.63;1.80;;;;;;;4.69;100.00;101059.00;5104392;28;20066;-35
2022/02/24 19:23:48;;;;;;;11.38;2.20;;;;;;;4.67;100.00;101061.19;5097737;28;20048;-36
2022/02/24 19:26:17;;;;;;;13.10;1.77;;;;;;;4.67;100.00;101062.03;5103625;28;20058;-30
2022/02/24 19:28:46;;;;;;;11.15;1.92;;;;;;;4.69;100.00;101065.38;5098416;28;20402;-35
2022/02/24 19:31:14;;;;;;;11.32;1.48;;;;;;;4.68;100.00;101063.69;5101521;28;20050;-32
2022/02/24 19:33:42;;;;;;;9.32;1.63;;;;;;;4.71;100.00;101059.59;5099824;28;20047;-33
2022/02/24 19:36:11;;;;;;;10.77;1.60;;;;;;;4.69;100.00;101075.59;5100631;28;20062;-31
2022/02/24 19:38:39;;;;;;;9.20;2.00;;;;;;;4.66;100.00;101057.59;5098252;28;20054;-35
2022/02/24 19:41:07;;;;;;;10.40;1.50;;;;;;;4.65;100.00;101068.88;5101013;28;20055;-36
2022/02/24 19:43:36;;;;;;;13.57;1.60;;;;;;;4.66;100.00;101076.09;5098173;28;20235;-32
2022/02/24 19:46:03;;;;;;;12.02;1.40;;;;;;;4.65;100.00;101063.38;5100752;28;20496;-33
2022/02/24 19:48:31;;;;;;;15.35;2.20;;;;;;;4.66;100.00;101074.16;5099076;27;20052;-31
2022/02/24 19:50:59;;;;;;;14.07;1.95;;;;;;;4.72;100.00;101083.38;5099627;28;20071;-34
2022/02/24 19:53:28;;;;;;;14.57;1.88;;;;;;;4.74;100.00;101078.44;5101376;28;20060;-30
